createdAt,value
2019-02-21T00:00:24.219Z,19.13
2019-02-21T00:02:50.306Z,20.60
2019-02-21T00:05:18.845Z,21.40
2019-02-21T00:07:47.272Z,22.90
2019-02-21T00:10:15.720Z,22.57
2019-02-21T00:12:44.171Z,24.00
2019-02-21T00:15:12.607Z,27.23
2019-02-21T00:17:41.032Z,28.57
2019-02-21T00:20:09.464Z,21.70
2019-02-21T00:22:37.888Z,23.57
2019-02-21T00:25:06.463Z,24.47
2019-02-21T00:27:34.959Z,27.77
2019-02-21T00:30:03.861Z,23.47
2019-02-21T00:32:32.281Z,24.20
2019-02-21T00:35:00.701Z,23.90
2019-02-21T00:37:29.148Z,26.17
2019-02-21T00:39:57.566Z,20.60
2019-02-21T00:42:26.010Z,30.63
2019-02-21T00:44:54.426Z,25.80
2019-02-21T00:47:22.888Z,23.17
2019-02-21T00:49:51.353Z,21.90
2019-02-21T00:52:19.789Z,21.57
2019-02-21T00:54:48.235Z,28.53
2019-02-21T00:57:16.712Z,27.87
2019-02-21T00:59:45.149Z,26.77
2019-02-21T01:02:13.569Z,25.50
2019-02-21T01:04:42.007Z,25.70
2019-02-21T01:07:10.503Z,24.80
2019-02-21T01:09:38.934Z,27.10
2019-02-21T01:12:07.360Z,24.57
2019-02-21T01:14:35.764Z,31.27
2019-02-21T01:17:04.251Z,31.63
2019-02-21T01:19:32.686Z,23.33
2019-02-21T01:22:01.110Z,20.77
2019-02-21T01:24:29.542Z,24.63
2019-02-21T01:26:57.953Z,29.60
2019-02-21T01:29:26.478Z,22.43
2019-02-21T01:31:54.941Z,26.57
2019-02-21T01:34:23.355Z,26.07
2019-02-21T01:36:51.785Z,25.00
2019-02-21T01:39:20.321Z,26.37
2019-02-21T01:41:48.814Z,23.90
2019-02-21T01:44:17.255Z,32.90
2019-02-21T01:46:45.746Z,26.13
2019-02-21T01:49:14.175Z,27.40
2019-02-21T01:51:42.648Z,29.63
2019-02-21T01:54:11.075Z,23.77
2019-02-21T01:56:39.536Z,29.73
2019-02-21T01:59:08.028Z,26.70
2019-02-21T02:05:06.987Z,26.03
2019-02-21T02:07:35.405Z,24.10
2019-02-21T02:10:04.345Z,22.13
2019-02-21T02:12:32.761Z,23.50
2019-02-21T02:15:01.174Z,22.57
2019-02-21T02:17:29.887Z,20.63
2019-02-21T02:19:58.408Z,27.40
2019-02-21T02:22:26.928Z,22.80
2019-02-21T02:24:55.341Z,21.90
2019-02-21T02:27:23.785Z,22.00
2019-02-21T02:29:52.242Z,24.20
2019-02-21T02:32:20.722Z,22.90
2019-02-21T02:34:49.142Z,23.93
2019-02-21T02:37:17.614Z,22.20
2019-02-21T02:39:46.081Z,24.33
2019-02-21T02:42:14.597Z,19.47
2019-02-21T02:44:43.210Z,22.47
2019-02-21T02:47:11.661Z,20.30
2019-02-21T02:49:40.078Z,21.80
2019-02-21T02:52:08.508Z,23.70
2019-02-21T02:54:36.926Z,19.20
2019-02-21T02:57:05.341Z,24.70
2019-02-21T02:59:40.835Z,25.10
2019-02-21T03:02:03.999Z,33.40
2019-02-21T03:04:32.552Z,26.20
2019-02-21T03:07:01.226Z,28.20
2019-02-21T03:09:29.675Z,26.03
2019-02-21T03:11:58.093Z,35.20
2019-02-21T03:14:26.549Z,34.77
2019-02-21T03:16:54.970Z,34.60
2019-02-21T03:19:23.513Z,36.00
2019-02-21T03:21:51.931Z,36.17
2019-02-21T03:24:20.382Z,42.03
2019-02-21T03:26:48.827Z,39.20
2019-02-21T03:29:17.260Z,47.80
2019-02-21T03:31:54.494Z,35.10
2019-02-21T03:34:15.846Z,40.00
2019-02-21T03:36:44.270Z,38.43
2019-02-21T03:39:12.721Z,39.77
2019-02-21T03:41:41.178Z,43.27
2019-02-21T03:44:09.644Z,39.30
2019-02-21T03:46:38.086Z,39.90
2019-02-21T03:49:06.538Z,34.27
2019-02-21T03:51:35.007Z,37.57
2019-02-21T03:54:03.479Z,39.53
2019-02-21T03:56:31.955Z,38.60
2019-02-21T03:59:00.362Z,36.60
2019-02-21T04:01:28.830Z,33.40
2019-02-21T04:03:57.335Z,31.93
2019-02-21T04:06:25.815Z,37.50
2019-02-21T04:08:54.350Z,39.50
2019-02-21T04:11:22.837Z,37.47
2019-02-21T04:13:51.342Z,37.33
2019-02-21T04:16:19.813Z,34.70
2019-02-21T04:18:48.232Z,42.27
2019-02-21T04:21:16.666Z,35.90
2019-02-21T04:23:45.085Z,35.27
2019-02-21T04:26:13.688Z,34.10
2019-02-21T04:28:42.102Z,36.23
2019-02-21T04:31:10.821Z,33.30
2019-02-21T04:33:39.290Z,35.20
2019-02-21T04:36:07.791Z,31.20
2019-02-21T04:38:36.248Z,33.10
2019-02-21T04:41:04.673Z,35.83
2019-02-21T04:43:33.150Z,29.77
2019-02-21T04:46:01.633Z,29.83
2019-02-21T04:48:30.112Z,31.70
2019-02-21T04:50:58.534Z,32.80
2019-02-21T04:53:27.866Z,27.67
2019-02-21T04:55:56.345Z,33.93
2019-02-21T04:58:24.783Z,36.90
2019-02-21T05:00:53.208Z,32.10
2019-02-21T05:03:21.661Z,36.33
2019-02-21T05:05:50.153Z,27.30
2019-02-21T05:08:18.592Z,30.20
2019-02-21T05:10:47.148Z,31.27
2019-02-21T05:13:15.673Z,30.77
2019-02-21T05:15:44.117Z,35.07
2019-02-21T05:18:12.554Z,30.37
2019-02-21T05:20:40.981Z,33.13
2019-02-21T05:23:09.441Z,34.40
2019-02-21T05:25:37.857Z,27.20
2019-02-21T05:28:24.122Z,30.97
2019-02-21T05:30:54.189Z,30.57
2019-02-21T05:33:40.650Z,33.17
2019-02-21T05:36:13.644Z,34.97
2019-02-21T05:38:49.354Z,26.20
2019-02-21T05:41:22.542Z,35.80
2019-02-21T05:44:07.964Z,29.30
2019-02-21T05:46:40.603Z,29.80
2019-02-21T05:49:19.489Z,35.10
2019-02-21T05:51:52.508Z,29.03
2019-02-21T05:54:31.657Z,39.33
2019-02-21T05:57:01.758Z,23.70
2019-02-21T05:59:40.787Z,31.33
2019-02-21T06:02:10.842Z,27.27
2019-02-21T06:04:43.857Z,30.30
2019-02-21T06:07:13.935Z,27.20
2019-02-21T06:09:53.181Z,38.10
2019-02-21T06:12:33.523Z,27.67
2019-02-21T06:15:10.052Z,26.23
2019-02-21T06:17:55.266Z,27.20
2019-02-21T06:20:40.474Z,27.67
2019-02-21T06:23:13.337Z,27.73
2019-02-21T06:25:54.507Z,28.37
2019-02-21T06:28:21.970Z,30.60
2019-02-21T06:30:54.530Z,25.43
2019-02-21T06:33:22.970Z,26.10
2019-02-21T06:35:51.414Z,28.23
2019-02-21T06:38:19.905Z,37.03
2019-02-21T06:40:48.354Z,31.23
2019-02-21T06:43:16.826Z,27.30
2019-02-21T06:45:45.231Z,36.23
2019-02-21T06:48:13.675Z,26.30
2019-02-21T06:50:42.089Z,25.67
2019-02-21T06:53:10.645Z,27.07
2019-02-21T06:55:39.062Z,38.20
2019-02-21T06:58:07.482Z,45.17
2019-02-21T07:00:35.926Z,23.87
2019-02-21T07:03:15.230Z,27.67
2019-02-21T07:05:36.800Z,28.03
2019-02-21T07:08:04.654Z,23.40
2019-02-21T07:10:33.083Z,25.63
2019-02-21T07:13:01.515Z,31.37
2019-02-21T07:15:29.944Z,26.10
2019-02-21T07:17:58.402Z,26.50
2019-02-21T07:20:26.821Z,26.70
2019-02-21T07:22:55.282Z,28.40
2019-02-21T07:25:41.661Z,31.43
2019-02-21T07:28:12.557Z,27.77
2019-02-21T07:30:42.780Z,27.90
2019-02-21T07:33:10.383Z,23.87
2019-02-21T07:35:38.801Z,26.97
2019-02-21T07:38:07.219Z,22.40
2019-02-21T07:40:36.508Z,26.60
2019-02-21T07:43:04.905Z,23.83
2019-02-21T07:45:36.061Z,23.90
2019-02-21T07:48:03.499Z,21.33
2019-02-21T07:50:32.134Z,21.70
2019-02-21T07:53:02.645Z,23.30
2019-02-21T07:55:30.705Z,21.40
2019-02-21T07:57:59.129Z,22.47
2019-02-21T08:00:27.662Z,21.80
2019-02-21T08:02:56.078Z,20.87
2019-02-21T08:05:24.494Z,25.00
2019-02-21T08:07:52.927Z,24.73
2019-02-21T08:10:32.791Z,20.30
2019-02-21T08:12:53.433Z,18.70
2019-02-21T08:15:21.713Z,31.50
2019-02-21T08:17:50.168Z,24.77
2019-02-21T08:20:18.581Z,23.80
2019-02-21T08:22:47.015Z,22.27
2019-02-21T08:25:15.433Z,17.80
2019-02-21T08:27:43.886Z,18.10
2019-02-21T08:30:14.540Z,20.87
2019-02-21T08:32:59.841Z,18.93
2019-02-21T08:35:28.667Z,17.93
2019-02-21T08:37:57.354Z,19.20
2019-02-21T08:40:25.806Z,16.53
2019-02-21T08:42:54.228Z,22.90
2019-02-21T08:45:22.646Z,21.93
2019-02-21T08:47:51.084Z,20.90
2019-02-21T08:50:22.169Z,23.57
2019-02-21T08:52:49.660Z,39.97
2019-02-21T08:55:18.109Z,32.67
2019-02-21T08:57:46.513Z,26.30
2019-02-21T09:00:16.083Z,25.93
2019-02-21T09:02:44.563Z,28.90
2019-02-21T09:05:13.644Z,27.40
2019-02-21T09:07:42.090Z,35.10
2019-02-21T09:10:13.525Z,25.77
2019-02-21T09:12:41.952Z,25.27
2019-02-21T09:15:15.479Z,26.50
2019-02-21T09:17:43.894Z,22.73
2019-02-21T09:20:12.554Z,24.17
2019-02-21T09:22:40.993Z,24.00
2019-02-21T09:25:13.704Z,24.07
2019-02-21T09:27:42.144Z,22.00
2019-02-21T09:30:18.198Z,21.20
2019-02-21T09:32:46.762Z,20.47
2019-02-21T09:35:15.312Z,17.63
2019-02-21T09:37:43.776Z,24.37
2019-02-21T09:40:15.395Z,21.53
2019-02-21T09:42:43.813Z,24.80
2019-02-21T09:45:18.979Z,19.37
2019-02-21T09:47:47.462Z,17.90
2019-02-21T09:50:15.916Z,20.83
2019-02-21T09:52:44.433Z,22.83
2019-02-21T09:55:17.194Z,24.50
2019-02-21T09:57:45.619Z,19.90
2019-02-21T10:00:16.188Z,20.43
2019-02-21T10:02:44.606Z,22.33
2019-02-21T10:05:13.052Z,28.50
2019-02-21T10:07:41.490Z,25.50
2019-02-21T10:10:19.067Z,25.20
2019-02-21T10:12:47.491Z,23.13
2019-02-21T10:15:16.788Z,23.87
2019-02-21T10:17:45.234Z,24.30
2019-02-21T10:20:19.299Z,27.23
2019-02-21T10:22:47.709Z,25.87
2019-02-21T10:25:24.395Z,20.47
2019-02-21T10:27:53.689Z,22.90
2019-02-21T10:30:23.453Z,30.97
2019-02-21T10:32:51.954Z,28.47
2019-02-21T10:35:20.387Z,29.73
2019-02-21T10:37:48.793Z,27.40
2019-02-21T10:40:17.289Z,26.80
2019-02-21T10:42:45.709Z,25.90
2019-02-21T10:45:16.174Z,24.73
2019-02-21T10:47:44.713Z,27.63
2019-02-21T10:50:15.483Z,27.33
2019-02-21T10:52:43.947Z,28.77
2019-02-21T10:55:12.516Z,35.80
2019-02-21T10:57:41.101Z,28.53
2019-02-21T11:00:26.863Z,27.97
2019-02-21T11:02:55.610Z,31.13
2019-02-21T11:05:24.000Z,30.90
2019-02-21T11:07:52.411Z,24.37
2019-02-21T11:10:23.503Z,27.10
2019-02-21T11:12:52.024Z,31.67
2019-02-21T11:15:22.689Z,36.33
2019-02-21T11:17:51.187Z,29.63
2019-02-21T11:20:20.386Z,30.00
2019-02-21T11:22:49.050Z,36.37
2019-02-21T11:25:17.472Z,29.80
2019-02-21T11:27:45.953Z,31.30
2019-02-21T11:30:16.708Z,26.93
2019-02-21T11:32:45.161Z,31.30
2019-02-21T11:35:14.326Z,28.10
2019-02-21T11:37:46.595Z,29.67
2019-02-21T11:40:17.578Z,31.87
2019-02-21T11:42:46.242Z,30.93
2019-02-21T11:45:17.566Z,33.73
2019-02-21T11:47:46.123Z,38.03
2019-02-21T11:50:19.158Z,34.30
2019-02-21T11:52:48.047Z,33.37
2019-02-21T11:55:21.444Z,34.00
2019-02-21T11:57:49.962Z,32.47
2019-02-21T12:00:20.992Z,34.20
2019-02-21T12:02:49.456Z,34.97
2019-02-21T12:05:27.861Z,35.10
2019-02-21T12:07:48.121Z,34.17
2019-02-21T12:10:16.578Z,30.30
2019-02-21T12:12:45.124Z,35.40
2019-02-21T12:15:14.731Z,37.53
2019-02-21T12:17:43.460Z,35.30
2019-02-21T12:20:19.056Z,34.95
2019-02-21T12:22:47.910Z,38.00
2019-02-21T12:25:18.172Z,34.97
2019-02-21T12:27:46.749Z,34.33
2019-02-21T12:30:17.826Z,30.43
2019-02-21T12:32:46.378Z,35.10
2019-02-21T12:35:15.159Z,41.97
2019-02-21T12:37:43.622Z,36.97
2019-02-21T12:40:17.257Z,31.43
2019-02-21T12:42:45.776Z,32.20
2019-02-21T12:45:16.916Z,32.83
2019-02-21T12:47:50.691Z,32.27
2019-02-21T12:50:15.630Z,39.43
2019-02-21T12:52:44.141Z,40.33
2019-02-21T12:55:13.435Z,30.70
2019-02-21T12:57:42.126Z,33.10
2019-02-21T13:00:20.995Z,34.73
2019-02-21T13:02:49.470Z,38.30
2019-02-21T13:05:18.163Z,38.63
2019-02-21T13:07:46.615Z,28.57
2019-02-21T13:10:20.536Z,38.97
2019-02-21T13:12:49.015Z,32.50
2019-02-21T13:15:17.516Z,33.07
2019-02-21T13:17:45.965Z,30.70
2019-02-21T13:20:15.065Z,29.07
2019-02-21T13:22:43.766Z,36.43
2019-02-21T13:25:14.023Z,34.23
2019-02-21T13:27:42.541Z,30.70
2019-02-21T13:30:13.641Z,25.63
2019-02-21T13:32:42.153Z,33.40
2019-02-21T13:35:11.176Z,32.50
2019-02-21T13:37:39.822Z,31.90
2019-02-21T13:40:11.460Z,30.07
2019-02-21T13:42:39.911Z,25.83
2019-02-21T13:45:10.099Z,36.40
2019-02-21T13:47:39.354Z,41.17
2019-02-21T13:50:10.730Z,35.47
2019-02-21T13:52:39.242Z,27.60
2019-02-21T13:55:08.090Z,29.40
2019-02-21T13:57:36.665Z,39.70
2019-02-21T14:00:11.069Z,28.80
2019-02-21T14:02:39.608Z,31.83
2019-02-21T14:05:08.301Z,28.60
2019-02-21T14:07:37.419Z,33.77
2019-02-21T14:10:08.650Z,29.60
2019-02-21T14:12:37.112Z,33.57
2019-02-21T14:15:14.961Z,30.83
2019-02-21T14:17:43.466Z,36.60
2019-02-21T14:20:11.977Z,32.20
2019-02-21T14:22:40.499Z,26.50
2019-02-21T14:25:10.303Z,31.57
2019-02-21T14:27:39.013Z,36.27
2019-02-21T14:30:12.867Z,35.10
2019-02-21T14:32:41.297Z,39.83
2019-02-21T14:35:12.385Z,30.33
2019-02-21T14:37:40.871Z,35.70
2019-02-21T14:40:11.192Z,33.13
2019-02-21T14:42:39.840Z,32.07
2019-02-21T14:45:13.998Z,34.33
2019-02-21T14:47:42.424Z,33.00
2019-02-21T14:50:12.167Z,36.83
2019-02-21T14:52:40.686Z,28.13
2019-02-21T14:55:11.452Z,37.60
2019-02-21T14:57:41.179Z,31.63
2019-02-21T15:00:18.220Z,26.87
2019-02-21T15:02:46.643Z,29.40
2019-02-21T15:05:15.648Z,27.10
2019-02-21T15:07:45.136Z,31.70
2019-02-21T15:10:14.269Z,24.43
2019-02-21T15:12:42.696Z,31.40
2019-02-21T15:15:25.357Z,26.80
2019-02-21T15:17:53.865Z,27.80
2019-02-21T15:20:22.372Z,26.20
2019-02-21T15:22:53.178Z,30.43
2019-02-21T15:25:21.081Z,27.70
2019-02-21T15:27:49.514Z,36.80
2019-02-21T15:30:25.006Z,29.20
2019-02-21T15:32:53.463Z,31.53
2019-02-21T15:35:21.901Z,34.10
2019-02-21T15:37:50.354Z,27.87
2019-02-21T15:40:18.876Z,27.57
2019-02-21T15:42:47.382Z,30.13
2019-02-21T15:45:23.597Z,37.43
2019-02-21T15:47:49.052Z,34.17
2019-02-21T15:50:19.745Z,29.37
2019-02-21T15:52:48.062Z,30.33
2019-02-21T15:55:18.253Z,29.63
2019-02-21T15:57:46.703Z,32.87
2019-02-21T16:00:17.160Z,31.47
2019-02-21T16:02:46.784Z,32.67
2019-02-21T16:05:15.327Z,28.17
2019-02-21T16:07:43.992Z,30.70
2019-02-21T16:10:15.072Z,33.53
2019-02-21T16:12:44.190Z,38.40
2019-02-21T16:15:16.159Z,35.37
2019-02-21T16:17:44.089Z,37.60
2019-02-21T16:20:20.370Z,38.37
2019-02-21T16:22:48.876Z,32.80
2019-02-21T16:25:25.023Z,36.63
2019-02-21T16:27:55.373Z,34.97
2019-02-21T16:30:24.107Z,39.50
2019-02-21T16:32:52.548Z,37.80
2019-02-21T16:35:21.017Z,34.93
2019-02-21T16:37:49.550Z,34.70
2019-02-21T16:40:21.146Z,31.10
2019-02-21T16:42:49.630Z,30.73
2019-02-21T16:45:19.598Z,31.43
2019-02-21T16:47:48.017Z,35.50
2019-02-21T16:50:16.553Z,36.50
2019-02-21T16:52:45.050Z,31.60
2019-02-21T16:55:21.319Z,32.97
2019-02-21T16:57:49.997Z,32.50
2019-02-21T17:00:19.794Z,32.67
2019-02-21T17:02:48.254Z,33.93
2019-02-21T17:05:16.764Z,35.07
2019-02-21T17:07:45.346Z,35.87
2019-02-21T17:10:15.871Z,34.30
2019-02-21T17:12:44.300Z,34.80
2019-02-21T17:15:14.724Z,28.07
2019-02-21T17:17:43.146Z,35.33
2019-02-21T17:20:14.642Z,36.93
2019-02-21T17:22:43.069Z,27.00
2019-02-21T17:25:13.928Z,36.77
2019-02-21T17:27:42.542Z,28.83
2019-02-21T17:30:13.796Z,31.33
2019-02-21T17:32:42.213Z,22.70
2019-02-21T17:35:10.705Z,24.07
2019-02-21T17:37:39.139Z,18.43
2019-02-21T17:40:10.459Z,22.40
2019-02-21T17:42:38.894Z,13.80
2019-02-21T17:45:08.510Z,20.40
2019-02-21T17:47:36.944Z,18.53
2019-02-21T17:50:08.285Z,15.43
2019-02-21T17:52:36.702Z,18.07
2019-02-21T17:55:07.573Z,17.70
2019-02-21T17:57:37.009Z,21.00
2019-02-21T18:00:24.135Z,20.63
2019-02-21T18:02:52.550Z,21.80
2019-02-21T18:05:21.051Z,18.93
2019-02-21T18:07:49.462Z,18.40
2019-02-21T18:10:18.441Z,19.50
2019-02-21T18:12:46.852Z,19.90
2019-02-21T18:15:16.235Z,20.00
2019-02-21T18:17:44.689Z,14.83
2019-02-21T18:20:14.479Z,14.57
2019-02-21T18:22:42.892Z,16.80
2019-02-21T18:25:22.974Z,17.53
2019-02-21T18:27:51.386Z,14.10
2019-02-21T18:30:19.841Z,19.50
2019-02-21T18:32:48.245Z,25.67
2019-02-21T18:35:16.757Z,17.67
2019-02-21T18:37:47.671Z,14.77
2019-02-21T18:40:20.923Z,21.10
2019-02-21T18:42:49.963Z,17.77
2019-02-21T18:45:18.476Z,17.90
2019-02-21T18:47:46.889Z,19.63
2019-02-21T18:50:15.517Z,22.70
2019-02-21T18:52:44.740Z,18.90
2019-02-21T18:55:13.318Z,28.53
2019-02-21T18:57:41.737Z,28.60
2019-02-21T19:00:16.419Z,21.63
2019-02-21T19:02:44.983Z,26.17
2019-02-21T19:05:13.415Z,25.57
2019-02-21T19:07:41.910Z,43.57
2019-02-21T19:10:16.339Z,29.60
2019-02-21T19:12:44.749Z,32.13
2019-02-21T19:15:14.642Z,32.87
2019-02-21T19:17:43.146Z,37.97
2019-02-21T19:20:14.005Z,30.90
2019-02-21T19:22:42.455Z,40.00
2019-02-21T19:25:11.814Z,36.90
2019-02-21T19:27:40.233Z,39.43
2019-02-21T19:30:17.520Z,36.70
2019-02-21T19:32:45.939Z,37.40
2019-02-21T19:35:14.831Z,44.53
2019-02-21T19:37:43.264Z,32.77
2019-02-21T19:40:12.031Z,40.03
2019-02-21T19:42:40.503Z,38.27
2019-02-21T19:45:09.698Z,47.20
2019-02-21T19:47:38.132Z,44.30
2019-02-21T19:50:08.555Z,49.73
2019-02-21T19:52:37.119Z,45.80
2019-02-21T19:55:10.298Z,61.40
2019-02-21T19:57:38.801Z,45.10
2019-02-21T20:00:13.170Z,52.67
2019-02-21T20:02:41.674Z,48.80
2019-02-21T20:05:10.343Z,57.97
2019-02-21T20:07:38.845Z,72.00
2019-02-21T20:10:08.494Z,62.00
2019-02-21T20:12:37.070Z,65.83
2019-02-21T20:15:08.133Z,74.10
2019-02-21T20:17:36.586Z,66.67
2019-02-21T20:20:17.167Z,73.90
2019-02-21T20:22:45.597Z,71.97
2019-02-21T20:25:14.367Z,70.43
2019-02-21T20:27:43.459Z,85.37
2019-02-21T20:30:16.753Z,66.17
2019-02-21T20:32:45.210Z,74.60
2019-02-21T20:35:13.725Z,83.80
2019-02-21T20:37:42.179Z,88.77
2019-02-21T20:40:11.542Z,80.03
2019-02-21T20:42:39.993Z,89.97
2019-02-21T20:45:10.735Z,99.00
2019-02-21T20:47:39.178Z,100.33
2019-02-21T20:50:10.684Z,97.70
2019-02-21T20:52:39.419Z,97.23
2019-02-21T20:55:09.907Z,95.67
2019-02-21T20:57:38.354Z,105.30
2019-02-21T21:00:17.569Z,86.90
2019-02-21T21:02:46.033Z,84.97
2019-02-21T21:05:14.918Z,91.37
2019-02-21T21:07:43.438Z,98.10
2019-02-21T21:10:15.911Z,96.20
2019-02-21T21:12:44.431Z,110.13
2019-02-21T21:15:14.981Z,103.03
2019-02-21T21:17:44.841Z,115.63
2019-02-21T21:20:16.988Z,105.60
2019-02-21T21:22:44.759Z,115.97
2019-02-21T21:25:17.779Z,111.77
2019-02-21T21:27:46.226Z,112.40
2019-02-21T21:30:18.025Z,104.40
2019-02-21T21:32:46.503Z,101.77
2019-02-21T21:35:14.942Z,94.00
2019-02-21T21:37:43.465Z,100.43
2019-02-21T21:40:14.584Z,91.33
2019-02-21T21:42:43.022Z,106.27
2019-02-21T21:45:14.090Z,101.40
2019-02-21T21:47:42.506Z,101.83
2019-02-21T21:50:13.669Z,99.30
2019-02-21T21:52:42.100Z,99.53
2019-02-21T21:55:10.536Z,87.83
2019-02-21T21:57:39.044Z,86.90
2019-02-21T22:00:10.534Z,81.13
2019-02-21T22:02:38.989Z,87.20
2019-02-21T22:05:09.236Z,83.67
2019-02-21T22:07:37.763Z,92.00
2019-02-21T22:10:13.230Z,80.50
2019-02-21T22:12:41.677Z,83.87
2019-02-21T22:15:12.592Z,79.90
2019-02-21T22:17:42.171Z,84.13
2019-02-21T22:20:10.905Z,80.40
2019-02-21T22:22:39.334Z,75.20
2019-02-21T22:25:10.217Z,76.80
2019-02-21T22:27:39.526Z,75.80
2019-02-21T22:30:11.304Z,73.33
2019-02-21T22:32:39.716Z,76.10
2019-02-21T22:35:08.389Z,86.43
2019-02-21T22:37:36.802Z,72.40
2019-02-21T22:40:08.302Z,82.93
2019-02-21T22:42:36.737Z,77.40
2019-02-21T22:45:06.098Z,78.73
2019-02-21T22:47:34.536Z,81.90
2019-02-21T22:50:03.043Z,61.90
2019-02-21T22:52:31.467Z,66.13
2019-02-21T22:55:09.243Z,62.77
2019-02-21T22:57:30.094Z,61.37
2019-02-21T22:59:58.794Z,56.70
2019-02-21T23:02:27.953Z,54.80
2019-02-21T23:05:14.661Z,55.20
2019-02-21T23:07:43.262Z,54.17
2019-02-21T23:10:11.760Z,49.07
2019-02-21T23:12:40.197Z,50.03
2019-02-21T23:15:08.787Z,47.03
2019-02-21T23:17:37.230Z,42.70
2019-02-21T23:20:06.097Z,42.00
2019-02-21T23:22:34.533Z,42.70
2019-02-21T23:25:03.166Z,41.20
2019-02-21T23:27:31.674Z,45.27
2019-02-21T23:30:00.273Z,38.50
2019-02-21T23:32:28.813Z,32.27
2019-02-21T23:34:57.727Z,35.87
2019-02-21T23:37:26.207Z,35.23
2019-02-21T23:39:54.686Z,28.57
2019-02-21T23:42:23.233Z,32.87
2019-02-21T23:44:51.666Z,29.30
2019-02-21T23:47:20.122Z,29.80
2019-02-21T23:49:48.559Z,32.00
2019-02-21T23:52:17.112Z,30.17
2019-02-21T23:54:45.560Z,24.70
2019-02-21T23:57:13.974Z,23.87
2019-02-21T23:59:42.423Z,24.50
